createdAt,value
2022-10-21T00:00:19.224Z,11.00
2022-10-21T00:05:32.611Z,10.90
2022-10-21T00:10:38.499Z,10.90
2022-10-21T00:15:41.249Z,10.80
2022-10-21T00:20:43.951Z,10.90
2022-10-21T00:25:46.704Z,10.80
2022-10-21T00:31:07.070Z,10.90
2022-10-21T00:36:28.491Z,10.90
2022-10-21T00:47:34.420Z,10.60
2022-10-21T00:52:53.611Z,10.60
2022-10-21T00:58:11.476Z,10.70
2022-10-21T01:03:49.824Z,10.60
2022-10-21T01:18:28.105Z,10.60
2022-10-21T01:23:46.964Z,10.70
2022-10-21T01:29:19.361Z,10.80
2022-10-21T01:34:37.481Z,10.80
2022-10-21T01:39:48.253Z,10.90
2022-10-21T01:45:23.981Z,10.90
2022-10-21T01:50:30.763Z,11.00
2022-10-21T01:55:33.863Z,10.90
2022-10-21T02:00:39.456Z,10.90
2022-10-21T02:06:04.331Z,10.90
2022-10-21T02:11:25.219Z,11.10
2022-10-21T02:16:46.552Z,11.00
2022-10-21T02:22:12.297Z,11.10
2022-10-21T02:27:35.454Z,11.00
2022-10-21T02:33:06.825Z,11.20
2022-10-21T02:38:33.117Z,11.20
2022-10-21T02:43:56.385Z,11.10
2022-10-21T02:49:07.968Z,11.10
2022-10-21T02:54:17.246Z,11.00
2022-10-21T02:59:22.747Z,11.00
2022-10-21T03:04:50.204Z,11.00
2022-10-21T03:09:55.046Z,10.90
2022-10-21T03:14:57.830Z,10.90
2022-10-21T03:20:00.618Z,11.10
2022-10-21T03:25:06.249Z,11.00
2022-10-21T03:30:09.915Z,11.00
2022-10-21T03:35:12.713Z,11.10
2022-10-21T03:40:15.732Z,11.00
2022-10-21T03:45:18.652Z,10.80
2022-10-21T03:50:25.989Z,10.90
2022-10-21T03:55:29.835Z,10.80
2022-10-21T04:00:32.713Z,10.70
2022-10-21T04:05:53.063Z,10.80
2022-10-21T04:11:07.449Z,10.80
2022-10-21T04:16:32.210Z,10.70
2022-10-21T04:21:56.933Z,10.70
2022-10-21T04:27:31.316Z,10.70
2022-10-21T04:32:52.792Z,10.70
2022-10-21T04:38:06.829Z,10.70
2022-10-21T04:43:40.514Z,10.60
2022-10-21T04:48:54.152Z,10.70
2022-10-21T04:54:03.303Z,10.60
2022-10-21T04:59:15.233Z,10.70
2022-10-21T05:04:39.975Z,10.70
2022-10-21T05:09:43.223Z,10.60
2022-10-21T05:14:45.937Z,10.60
2022-10-21T05:19:48.638Z,10.50
2022-10-21T05:24:51.412Z,10.50
2022-10-21T05:29:54.621Z,10.30
2022-10-21T05:34:57.503Z,10.30
2022-10-21T05:40:00.304Z,10.30
2022-10-21T05:45:03.190Z,10.20
2022-10-21T05:50:06.411Z,10.10
2022-10-21T05:55:10.030Z,10.00
2022-10-21T06:00:14.038Z,10.00
2022-10-21T06:05:33.007Z,10.10
2022-10-21T06:10:42.476Z,10.00
2022-10-21T06:15:48.757Z,10.00
2022-10-21T06:21:26.721Z,10.00
2022-10-21T06:26:44.423Z,9.90
2022-10-21T06:32:04.677Z,10.00
2022-10-21T06:37:13.293Z,9.80
2022-10-21T06:42:33.898Z,10.00
2022-10-21T06:47:57.516Z,10.00
2022-10-21T06:53:14.181Z,10.20
2022-10-21T06:58:41.044Z,10.20
2022-10-21T07:04:08.207Z,10.20
2022-10-21T07:09:17.521Z,10.30
2022-10-21T07:14:29.462Z,10.50
2022-10-21T07:19:33.441Z,10.60
2022-10-21T07:24:36.754Z,10.80
2022-10-21T07:29:39.506Z,11.00
2022-10-21T07:34:42.366Z,11.00
2022-10-21T07:39:45.135Z,11.10
2022-10-21T07:44:57.382Z,11.10
2022-10-21T07:50:00.136Z,11.20
2022-10-21T07:55:03.007Z,11.30
2022-10-21T08:00:07.217Z,11.50
2022-10-21T08:05:15.344Z,11.60
2022-10-21T08:10:18.688Z,11.80
2022-10-21T08:15:21.456Z,12.20
2022-10-21T08:20:25.708Z,12.50
2022-10-21T08:25:30.184Z,12.80
2022-10-21T08:31:12.927Z,13.10
2022-10-21T08:37:05.264Z,13.60
2022-10-21T08:42:33.189Z,13.90
2022-10-21T08:48:03.467Z,14.20
2022-10-21T08:53:40.999Z,14.30
2022-10-21T08:59:04.323Z,14.50
2022-10-21T09:04:55.679Z,14.80
2022-10-21T09:10:09.073Z,14.90
2022-10-21T09:15:58.873Z,15.00
2022-10-21T09:21:47.486Z,15.20
2022-10-21T09:27:04.968Z,15.40
2022-10-21T09:32:54.358Z,15.50
2022-10-21T09:38:48.779Z,15.70
2022-10-21T09:44:03.576Z,15.80
2022-10-21T09:50:02.138Z,16.00
2022-10-21T09:54:59.942Z,16.10
2022-10-21T10:00:06.124Z,16.20
2022-10-21T10:06:01.399Z,16.30
2022-10-21T10:11:29.407Z,16.50
2022-10-21T10:16:53.306Z,16.60
2022-10-21T10:22:17.122Z,16.80
2022-10-21T10:27:36.627Z,17.00
2022-10-21T10:32:59.904Z,17.20
2022-10-21T10:38:31.977Z,17.30
2022-10-21T10:44:01.493Z,17.40
2022-10-21T10:49:23.200Z,17.40
2022-10-21T10:54:28.379Z,17.40
2022-10-21T10:59:52.422Z,17.40
2022-10-21T11:05:52.619Z,17.50
2022-10-21T11:11:42.642Z,17.50
2022-10-21T11:17:16.786Z,17.60
2022-10-21T11:22:44.203Z,17.60
2022-10-21T11:28:39.074Z,17.50
2022-10-21T11:34:13.622Z,17.50
2022-10-21T11:39:41.379Z,17.40
2022-10-21T11:44:56.042Z,17.30
2022-10-21T11:50:26.145Z,17.10
2022-10-21T11:55:41.188Z,17.20
2022-10-21T12:00:58.297Z,17.10
2022-10-21T12:06:48.392Z,17.10
2022-10-21T12:12:31.481Z,17.20
2022-10-21T12:17:58.048Z,17.10
2022-10-21T12:23:27.887Z,17.00
2022-10-21T12:29:00.105Z,16.90
2022-10-21T12:34:15.075Z,16.90
2022-10-21T12:39:49.361Z,16.80
2022-10-21T12:44:53.431Z,16.50
2022-10-21T12:50:14.223Z,16.40
2022-10-21T12:55:27.255Z,16.00
2022-10-21T13:00:29.937Z,16.10
2022-10-21T13:05:55.676Z,15.90
2022-10-21T13:11:10.501Z,15.30
2022-10-21T13:16:19.991Z,15.40
2022-10-21T13:21:53.083Z,15.50
2022-10-21T13:27:55.434Z,15.30
2022-10-21T13:33:22.550Z,15.30
2022-10-21T13:38:59.810Z,15.10
2022-10-21T13:44:28.573Z,14.90
2022-10-21T13:49:34.359Z,14.90
2022-10-21T13:54:37.179Z,14.60
2022-10-21T13:59:39.944Z,14.20
2022-10-21T14:04:56.354Z,14.20
2022-10-21T14:10:00.150Z,14.00
2022-10-21T14:15:09.033Z,13.90
2022-10-21T14:20:33.780Z,13.80
2022-10-21T14:25:36.731Z,13.50
2022-10-21T14:30:40.207Z,13.50
2022-10-21T14:35:43.250Z,13.20
2022-10-21T14:47:05.884Z,13.10
2022-10-21T14:52:52.344Z,13.00
2022-10-21T14:58:10.442Z,12.80
2022-10-21T15:03:44.905Z,12.70
2022-10-21T15:09:01.040Z,12.50
2022-10-21T15:14:18.290Z,12.50
2022-10-21T15:19:26.139Z,12.30
2022-10-21T15:24:42.052Z,12.10
2022-10-21T15:29:47.892Z,12.10
2022-10-21T15:34:52.015Z,12.00
2022-10-21T15:39:54.710Z,12.00
2022-10-21T15:44:57.479Z,12.00
2022-10-21T15:50:00.228Z,11.80
2022-10-21T15:55:02.943Z,12.00
2022-10-21T16:00:19.246Z,12.00
2022-10-21T16:05:33.908Z,12.10
2022-10-21T16:10:51.986Z,12.10
2022-10-21T16:16:20.741Z,12.00
2022-10-21T16:21:25.420Z,12.10
2022-10-21T16:26:47.041Z,12.00
2022-10-21T16:32:06.143Z,11.90
2022-10-21T16:37:40.519Z,11.80
2022-10-21T16:43:06.644Z,11.90
2022-10-21T16:48:31.535Z,11.80
2022-10-21T16:53:50.689Z,11.80
2022-10-21T16:58:58.671Z,11.80
2022-10-21T17:04:20.380Z,11.90
2022-10-21T17:09:27.413Z,12.00
2022-10-21T17:14:30.141Z,12.20
2022-10-21T17:19:32.917Z,12.40
2022-10-21T17:24:35.617Z,12.50
2022-10-21T17:29:38.349Z,12.70
2022-10-21T17:34:41.242Z,12.80
2022-10-21T17:39:44.585Z,12.90
2022-10-21T17:44:47.368Z,12.90
2022-10-21T17:49:50.117Z,13.00
2022-10-21T17:54:52.860Z,12.90
2022-10-21T17:59:56.242Z,13.00
2022-10-21T18:05:04.097Z,13.10
2022-10-21T18:10:08.138Z,13.00
2022-10-21T18:15:11.193Z,13.00
2022-10-21T18:20:15.706Z,13.00
2022-10-21T18:25:18.453Z,12.90
2022-10-21T18:30:21.245Z,13.00
2022-10-21T18:35:24.939Z,13.00
2022-10-21T18:40:28.770Z,13.00
2022-10-21T18:45:31.453Z,13.00
2022-10-21T18:50:38.000Z,12.80
2022-10-21T18:55:41.165Z,13.00
2022-10-21T19:00:43.887Z,12.90
2022-10-21T19:05:46.607Z,12.90
2022-10-21T19:10:56.663Z,13.00
2022-10-21T19:16:22.437Z,13.00
2022-10-21T19:21:41.430Z,13.00
2022-10-21T19:27:04.934Z,12.90
2022-10-21T19:32:32.307Z,13.00
2022-10-21T19:37:55.010Z,13.00
2022-10-21T19:43:10.095Z,13.00
2022-10-21T19:48:33.335Z,13.00
2022-10-21T19:53:52.579Z,13.10
2022-10-21T19:59:01.957Z,13.20
2022-10-21T20:04:17.936Z,13.20
2022-10-21T20:09:20.883Z,13.20
2022-10-21T20:14:23.642Z,13.20
2022-10-21T20:19:26.416Z,13.20
2022-10-21T20:24:29.137Z,13.20
2022-10-21T20:29:31.834Z,13.10
2022-10-21T20:34:37.490Z,13.10
2022-10-21T20:39:40.472Z,13.10
2022-10-21T20:44:43.253Z,13.10
2022-10-21T20:49:46.002Z,13.10
2022-10-21T20:54:51.218Z,13.10
2022-10-21T20:59:53.964Z,13.20
2022-10-21T21:05:09.285Z,13.10
2022-10-21T21:10:28.220Z,13.10
2022-10-21T21:15:31.119Z,13.10
2022-10-21T21:20:33.825Z,13.10
2022-10-21T21:25:36.527Z,13.10
2022-10-21T21:30:39.228Z,13.10
2022-10-21T21:35:41.908Z,13.20
2022-10-21T21:40:53.637Z,13.20
2022-10-21T21:46:32.371Z,13.30
2022-10-21T21:51:54.900Z,13.30
2022-10-21T21:57:26.829Z,13.40
2022-10-21T22:02:49.617Z,13.30
2022-10-21T22:08:02.960Z,13.30
2022-10-21T22:13:46.621Z,13.30
2022-10-21T22:19:07.294Z,13.40
2022-10-21T22:29:40.873Z,13.50
2022-10-21T22:34:43.941Z,13.40
2022-10-21T22:39:46.540Z,13.30
2022-10-21T22:44:49.242Z,13.40
2022-10-21T22:49:52.234Z,13.40
2022-10-21T22:54:55.029Z,13.40
2022-10-21T22:59:57.729Z,13.20
2022-10-21T23:05:17.631Z,13.20
2022-10-21T23:10:25.749Z,13.30
2022-10-21T23:15:28.451Z,13.30
2022-10-21T23:20:31.678Z,13.20
2022-10-21T23:25:35.752Z,13.20
2022-10-21T23:30:38.809Z,13.20
2022-10-21T23:35:41.477Z,13.20
2022-10-21T23:40:44.579Z,13.30
2022-10-21T23:46:03.763Z,13.30
2022-10-21T23:51:20.322Z,13.20
2022-10-21T23:56:42.608Z,13.20
